Wetterdaten: Woche 01.05.06 - 07.05.06 (KW18)
Datum Zeit Temperatur Luftfeuchte Luftdruck Niederschlag Wind Richtung Sonne Solar Taupunkt Windchill
01.05.2006 00:00 5.2 C 75 % 1013.7 hPa 0.0 l/m 0.0 km/h (0 Bft) N 0.00 h 0 W/m 1.1 C 5.2 C
01.05.2006 01:00 4.1 C 82 % 1013.8 hPa 0.0 l/m 0.1 km/h (0 Bft) O-SO 0.00 h 0 W/m 1.4 C 4.1 C
01.05.2006 02:00 3.2 C 87 % 1014.0 hPa 0.0 l/m 0.0 km/h (0 Bft) N 0.00 h 0 W/m 1.2 C 3.2 C
01.05.2006 03:00 2.9 C 88 % 1014.0 hPa 0.0 l/m 0.0 km/h (0 Bft) N 0.00 h 0 W/m 1.0 C 2.9 C
01.05.2006 04:00 2.4 C 93 % 1013.8 hPa 0.0 l/m 0.0 km/h (0 Bft) N 0.00 h 0 W/m 1.3 C 2.4 C
01.05.2006 05:00 1.7 C 93 % 1013.6 hPa 0.0 l/m 0.0 km/h (0 Bft) N 0.00 h 0 W/m 0.7 C 1.7 C
01.05.2006 06:00 1.2 C 96 % 1013.8 hPa 0.0 l/m 0.2 km/h (0 Bft) O-SO 0.03 h 24 W/m 0.5 C 1.2 C
01.05.2006 07:00 2.2 C 92 % 1014.1 hPa 0.0 l/m 0.0 km/h (0 Bft) N 0.87 h 181 W/m 1.1 C 2.2 C
01.05.2006 08:00 4.4 C 81 % 1013.8 hPa 0.0 l/m 0.0 km/h (0 Bft) N 1.00 h 315 W/m 1.5 C 4.4 C
01.05.2006 09:00 7.2 C 65 % 1013.4 hPa 0.0 l/m 0.0 km/h (0 Bft) N 1.00 h 449 W/m 1.1 C 7.2 C
01.05.2006 10:00 10.7 C 54 % 1012.3 hPa 0.0 l/m 1.9 km/h (1 Bft) O-SO 1.00 h 599 W/m 1.7 C 10.7 C
01.05.2006 11:00 13.2 C 43 % 1011.5 hPa 0.0 l/m 1.1 km/h (1 Bft) SO 1.00 h 695 W/m 0.8 C 13.2 C
01.05.2006 12:00 15.3 C 37 % 1011.3 hPa 0.0 l/m 5.6 km/h (1 Bft) O-SO 1.00 h 776 W/m 0.8 C 15.3 C
01.05.2006 13:00 16.3 C 33 % 1010.4 hPa 0.0 l/m 1.9 km/h (1 Bft) SO 1.00 h 610 W/m -0.1 C 16.3 C
01.05.2006 14:00 16.2 C 33 % 1010.1 hPa 0.0 l/m 3.5 km/h (1 Bft) O-SO 0.33 h 414 W/m 0.0 C 16.2 C
01.05.2006 15:00 16.2 C 31 % 1010.1 hPa 0.0 l/m 0.5 km/h (0 Bft) W-NW 0.20 h 372 W/m -1.0 C 16.2 C
01.05.2006 16:00 15.8 C 32 % 1009.9 hPa 0.0 l/m 0.1 km/h (0 Bft) N 0.00 h 188 W/m -1.1 C 15.8 C
01.05.2006 17:00 15.5 C 36 % 1010.2 hPa 0.0 l/m 0.0 km/h (0 Bft) N 0.00 h 149 W/m 0.4 C 15.5 C
01.05.2006 18:00 15.1 C 36 % 1010.2 hPa 0.0 l/m 0.0 km/h (0 Bft) N 0.00 h 93 W/m 0.1 C 15.1 C
01.05.2006 19:00 14.1 C 45 % 1010.4 hPa 0.0 l/m 0.0 km/h (0 Bft) N 0.00 h 39 W/m 2.2 C 14.1 C
01.05.2006 20:00 12.1 C 56 % 1010.6 hPa 0.0 l/m 0.4 km/h (0 Bft) O-SO 0.03 h 14 W/m 3.6 C 12.1 C
01.05.2006 21:00 10.4 C 65 % 1011.4 hPa 0.0 l/m 0.0 km/h (0 Bft) N 0.00 h 0 W/m 4.1 C 10.4 C
01.05.2006 22:00 9.4 C 69 % 1012.1 hPa 0.0 l/m 1.1 km/h (0 Bft) O-SO 0.00 h 0 W/m 4.1 C 9.4 C
01.05.2006 23:00 8.9 C 73 % 1012.5 hPa 0.0 l/m 0.5 km/h (0 Bft) O-SO 0.00 h 0 W/m 4.2 C 8.8 C
02.05.2006 00:00 8.7 C 76 % 1013.2 hPa 0.0 l/m 0.1 km/h (0 Bft) N 0.00 h 0 W/m 4.6 C 8.7 C
02.05.2006 01:00 8.5 C 78 % 1013.4 hPa 0.0 l/m 1.0 km/h (0 Bft) O-SO 0.00 h 0 W/m 4.9 C 8.4 C
02.05.2006 02:00 8.2 C 79 % 1013.5 hPa 0.0 l/m 0.0 km/h (0 Bft) N 0.00 h 0 W/m 4.8 C 8.2 C
02.05.2006 03:00 7.8 C 82 % 1014.4 hPa 0.0 l/m 0.3 km/h (0 Bft) O-SO 0.00 h 0 W/m 4.9 C 7.8 C
02.05.2006 04:00 7.7 C 83 % 1014.4 hPa 0.0 l/m 0.0 km/h (0 Bft) N 0.00 h 0 W/m 4.9 C 7.7 C
02.05.2006 05:00 7.2 C 85 % 1014.7 hPa 0.0 l/m 0.9 km/h (0 Bft) O-SO 0.00 h 0 W/m 4.9 C 7.2 C
02.05.2006 06:00 6.5 C 88 % 1015.6 hPa 0.0 l/m 0.0 km/h (0 Bft) N 0.00 h 27 W/m 4.6 C 6.5 C
02.05.2006 07:00 7.2 C 87 % 1015.9 hPa 0.0 l/m 0.0 km/h (0 Bft) N 0.93 h 157 W/m 5.2 C 7.2 C
02.05.2006 08:00 8.7 C 77 % 1016.3 hPa 0.0 l/m 0.0 km/h (0 Bft) N 0.97 h 320 W/m 4.8 C 8.7 C
02.05.2006 09:00 12.1 C 62 % 1015.8 hPa 0.0 l/m 0.3 km/h (0 Bft) NW 1.00 h 520 W/m 4.9 C 12.1 C
02.05.2006 10:00 14.6 C 51 % 1015.5 hPa 0.0 l/m 0.1 km/h (0 Bft) N 1.00 h 623 W/m 4.5 C 14.6 C
02.05.2006 11:00 16.3 C 44 % 1015.3 hPa 0.0 l/m 0.4 km/h (0 Bft) W-NW 1.00 h 691 W/m 4.1 C 16.3 C
02.05.2006 12:00 18.9 C 40 % 1014.8 hPa 0.0 l/m 3.9 km/h (1 Bft) O-SO 1.00 h 745 W/m 5.1 C 18.9 C
02.05.2006 13:00 20.6 C 34 % 1013.7 hPa 0.0 l/m 4.3 km/h (1 Bft) O-SO 1.00 h 788 W/m 4.3 C 20.6 C
02.05.2006 14:00 21.6 C 31 % 1013.6 hPa 0.0 l/m 3.5 km/h (1 Bft) SO 1.00 h 740 W/m 3.9 C 21.6 C
02.05.2006 15:00 22.4 C 26 % 1013.5 hPa 0.0 l/m 1.1 km/h (1 Bft) W-NW 1.00 h 658 W/m 1.8 C 22.4 C
02.05.2006 16:00 23.6 C 20 % 1013.3 hPa 0.0 l/m 7.0 km/h (2 Bft) NW 1.00 h 579 W/m -0.7 C 23.6 C
02.05.2006 17:00 23.7 C 20 % 1013.3 hPa 0.0 l/m 3.9 km/h (1 Bft) W 1.00 h 475 W/m -0.3 C 23.7 C
02.05.2006 18:00 22.8 C 24 % 1012.4 hPa 0.0 l/m 2.6 km/h (1 Bft) SO 1.02 h 319 W/m 1.0 C 22.8 C
02.05.2006 19:00 21.5 C 32 % 1012.7 hPa 0.0 l/m 0.2 km/h (0 Bft) SO 1.00 h 155 W/m 4.2 C 21.5 C
02.05.2006 20:00 18.1 C 45 % 1014.0 hPa 0.0 l/m 2.2 km/h (1 Bft) O-SO 0.50 h 35 W/m 6.0 C 18.1 C
02.05.2006 21:00 15.1 C 53 % 1014.6 hPa 0.0 l/m 5.0 km/h (1 Bft) O-SO 0.00 h 0 W/m 5.7 C 15.1 C
02.05.2006 22:00 12.9 C 64 % 1015.7 hPa 0.0 l/m 1.7 km/h (1 Bft) O-SO 0.00 h 0 W/m 6.2 C 12.9 C
02.05.2006 23:00 11.1 C 74 % 1016.0 hPa 0.0 l/m 0.0 km/h (0 Bft) N 0.00 h 0 W/m 6.7 C 11.1 C
03.05.2006 00:00 10.0 C 77 % 1016.2 hPa 0.0 l/m 0.0 km/h (0 Bft) N 0.00 h 0 W/m 6.2 C 10.0 C
03.05.2006 01:00 8.9 C 81 % 1017.3 hPa 0.0 l/m 0.0 km/h (0 Bft) N 0.00 h 0 W/m 5.8 C 8.9 C
03.05.2006 02:00 8.1 C 85 % 1017.4 hPa 0.0 l/m 0.0 km/h (0 Bft) N 0.00 h 0 W/m 5.8 C 8.1 C
03.05.2006 03:00 7.5 C 87 % 1017.5 hPa 0.0 l/m 0.0 km/h (0 Bft) N 0.00 h 0 W/m 5.5 C 7.5 C
03.05.2006 04:00 6.9 C 90 % 1017.8 hPa 0.0 l/m 0.0 km/h (0 Bft) N 0.00 h 0 W/m 5.3 C 6.9 C
03.05.2006 05:00 6.5 C 93 % 1018.7 hPa 0.0 l/m 0.0 km/h (0 Bft) N 0.00 h 0 W/m 5.4 C 6.5 C
03.05.2006 06:00 6.2 C 97 % 1018.7 hPa 0.0 l/m 0.0 km/h (0 Bft) N 0.33 h 33 W/m 5.7 C 6.2 C
03.05.2006 07:00 7.5 C 95 % 1019.6 hPa 0.0 l/m 0.0 km/h (0 Bft) N 0.70 h 123 W/m 6.7 C 7.5 C
03.05.2006 08:00 9.6 C 79 % 1019.3 hPa 0.0 l/m 0.0 km/h (0 Bft) N 0.67 h 287 W/m 6.1 C 9.6 C
03.05.2006 09:00 12.6 C 64 % 1018.9 hPa 0.0 l/m 0.0 km/h (0 Bft) N 1.00 h 505 W/m 6.0 C 12.6 C
03.05.2006 10:00 15.7 C 54 % 1018.5 hPa 0.0 l/m 0.1 km/h (0 Bft) N 1.00 h 600 W/m 6.3 C 15.7 C
03.05.2006 11:00 18.4 C 46 % 1017.2 hPa 0.0 l/m 0.4 km/h (0 Bft) NW 1.00 h 719 W/m 6.5 C 18.4 C
03.05.2006 12:00 20.9 C 38 % 1016.8 hPa 0.0 l/m 0.8 km/h (0 Bft) W-NW 1.00 h 709 W/m 6.0 C 20.9 C
03.05.2006 13:00 23.7 C 31 % 1016.0 hPa 0.0 l/m 3.0 km/h (1 Bft) O-SO 1.00 h 749 W/m 5.6 C 23.7 C
03.05.2006 14:00 25.4 C 25 % 1015.2 hPa 0.0 l/m 12.7 km/h (3 Bft) O-SO 1.00 h 794 W/m 3.6 C 25.4 C
03.05.2006 15:00 25.8 C 20 % 1014.7 hPa 0.0 l/m 18.8 km/h (3 Bft) O-SO 1.00 h 719 W/m 1.1 C 25.8 C
03.05.2006 16:00 25.8 C 20 % 1014.1 hPa 0.0 l/m 9.9 km/h (2 Bft) O-SO 1.00 h 613 W/m 1.1 C 25.8 C
03.05.2006 17:00 25.5 C 20 % 1014.1 hPa 0.0 l/m 5.0 km/h (1 Bft) O-SO 1.00 h 480 W/m 0.9 C 25.5 C
03.05.2006 18:00 24.7 C 20 % 1014.2 hPa 0.0 l/m 6.5 km/h (2 Bft) O-SO 1.00 h 319 W/m 0.2 C 24.7 C
03.05.2006 19:00 23.6 C 22 % 1014.4 hPa 0.0 l/m 2.2 km/h (1 Bft) O-SO 0.67 h 150 W/m 0.5 C 23.6 C
03.05.2006 20:00 21.2 C 34 % 1014.7 hPa 0.0 l/m 0.1 km/h (0 Bft) N 0.00 h 15 W/m 4.5 C 21.2 C
03.05.2006 21:00 19.4 C 39 % 1014.9 hPa 0.0 l/m 0.0 km/h (0 Bft) N 0.00 h 0 W/m 5.0 C 19.4 C
03.05.2006 22:00 16.6 C 48 % 1015.2 hPa 0.0 l/m 0.0 km/h (0 Bft) N 0.00 h 0 W/m 5.7 C 16.6 C
03.05.2006 23:00 14.3 C 59 % 1015.8 hPa 0.0 l/m 0.0 km/h (0 Bft) N 0.00 h 0 W/m 6.5 C 14.3 C
04.05.2006 00:00 13.3 C 64 % 1016.7 hPa 0.0 l/m 0.4 km/h (0 Bft) O-SO 0.00 h 0 W/m 6.7 C 13.3 C
04.05.2006 01:00 12.1 C 68 % 1016.4 hPa 0.0 l/m 0.1 km/h (0 Bft) N 0.00 h 0 W/m 6.4 C 12.1 C
04.05.2006 02:00 11.0 C 73 % 1016.0 hPa 0.0 l/m 0.7 km/h (0 Bft) O-SO 0.00 h 0 W/m 6.3 C 11.0 C
04.05.2006 03:00 10.0 C 78 % 1016.1 hPa 0.0 l/m 0.0 km/h (0 Bft) N 0.00 h 0 W/m 6.4 C 10.0 C
04.05.2006 04:00 9.3 C 81 % 1016.6 hPa 0.0 l/m 0.0 km/h (0 Bft) N 0.00 h 0 W/m 6.2 C 9.3 C
04.05.2006 05:00 8.9 C 83 % 1017.2 hPa 0.0 l/m 0.0 km/h (0 Bft) N 0.00 h 0 W/m 6.1 C 8.9 C
04.05.2006 06:00 8.6 C 86 % 1017.4 hPa 0.0 l/m 0.0 km/h (0 Bft) N 0.07 h 32 W/m 6.4 C 8.6 C
04.05.2006 07:00 9.6 C 83 % 1018.2 hPa 0.0 l/m 0.0 km/h (0 Bft) N 1.00 h 189 W/m 6.9 C 9.6 C
04.05.2006 08:00 11.9 C 73 % 1017.9 hPa 0.0 l/m 0.0 km/h (0 Bft) N 1.00 h 348 W/m 7.2 C 11.9 C
04.05.2006 09:00 15.1 C 58 % 1017.5 hPa 0.0 l/m 0.1 km/h (0 Bft) N 1.00 h 490 W/m 6.8 C 15.1 C
04.05.2006 10:00 17.4 C 50 % 1016.8 hPa 0.0 l/m 0.5 km/h (0 Bft) W-NW 1.00 h 616 W/m 6.8 C 17.4 C
04.05.2006 11:00 19.5 C 45 % 1015.9 hPa 0.0 l/m 0.6 km/h (0 Bft) W-NW 1.00 h 733 W/m 7.1 C 19.5 C
04.05.2006 12:00 22.2 C 38 % 1015.6 hPa 0.0 l/m 0.2 km/h (0 Bft) O-SO 1.00 h 791 W/m 7.0 C 22.2 C
04.05.2006 13:00 23.7 C 34 % 1014.6 hPa 0.0 l/m 1.1 km/h (1 Bft) SO 1.00 h 799 W/m 6.9 C 23.7 C
04.05.2006 14:00 25.0 C 31 % 1014.2 hPa 0.0 l/m 1.0 km/h (0 Bft) SO 1.00 h 777 W/m 6.9 C 25.0 C
04.05.2006 15:00 26.3 C 28 % 1014.0 hPa 0.0 l/m 0.6 km/h (0 Bft) SO 1.00 h 703 W/m 6.4 C 26.3 C
04.05.2006 16:00 27.0 C 27 % 1012.9 hPa 0.0 l/m 0.1 km/h (0 Bft) N 1.00 h 601 W/m 6.3 C 27.0 C
04.05.2006 17:00 27.2 C 26 % 1012.9 hPa 0.0 l/m 1.2 km/h (1 Bft) W-NW 1.00 h 474 W/m 6.1 C 27.2 C
04.05.2006 18:00 26.3 C 23 % 1013.0 hPa 0.0 l/m 0.1 km/h (0 Bft) O-SO 0.98 h 313 W/m 3.5 C 26.3 C
04.05.2006 19:00 24.6 C 28 % 1013.2 hPa 0.0 l/m 0.3 km/h (0 Bft) SO 0.87 h 149 W/m 4.8 C 24.6 C
04.05.2006 20:00 21.3 C 39 % 1013.8 hPa 0.0 l/m 0.8 km/h (0 Bft) O-SO 0.18 h 26 W/m 6.8 C 21.3 C
04.05.2006 21:00 17.6 C 54 % 1015.1 hPa 0.0 l/m 0.9 km/h (0 Bft) O-SO 0.00 h 0 W/m 8.1 C 17.6 C
04.05.2006 22:00 15.7 C 64 % 1015.8 hPa 0.0 l/m 0.0 km/h (0 Bft) N 0.00 h 0 W/m 8.8 C 15.7 C
04.05.2006 23:00 14.9 C 67 % 1016.5 hPa 0.0 l/m 0.0 km/h (0 Bft) N 0.00 h 0 W/m 8.7 C 14.9 C
05.05.2006 00:00 13.9 C 73 % 1017.2 hPa 0.0 l/m 0.0 km/h (0 Bft) N 0.00 h 0 W/m 9.1 C 13.9 C
05.05.2006 01:00 12.8 C 74 % 1017.8 hPa 0.0 l/m 0.8 km/h (0 Bft) O-SO 0.00 h 0 W/m 8.2 C 12.8 C
05.05.2006 02:00 12.8 C 75 % 1017.8 hPa 0.0 l/m 0.3 km/h (0 Bft) O-SO 0.00 h 0 W/m 8.5 C 12.8 C
05.05.2006 03:00 12.2 C 77 % 1017.9 hPa 0.0 l/m 0.0 km/h (0 Bft) N 0.00 h 0 W/m 8.3 C 12.2 C
05.05.2006 04:00 11.5 C 82 % 1018.0 hPa 0.0 l/m 0.2 km/h (0 Bft) O-SO 0.00 h 0 W/m 8.5 C 11.5 C
05.05.2006 05:00 11.5 C 83 % 1019.0 hPa 0.0 l/m 0.3 km/h (0 Bft) O-SO 0.00 h 0 W/m 8.7 C 11.5 C
05.05.2006 06:00 11.4 C 89 % 1019.1 hPa 4.2 l/m 2.7 km/h (1 Bft) O-SO 0.00 h 5 W/m 9.6 C 11.4 C
05.05.2006 07:00 11.8 C 93 % 1019.5 hPa 0.0 l/m 1.7 km/h (1 Bft) O-SO 0.00 h 41 W/m 10.6 C 11.8 C
05.05.2006 08:00 12.5 C 93 % 1019.9 hPa 0.0 l/m 0.0 km/h (0 Bft) N 0.17 h 136 W/m 11.4 C 12.5 C
05.05.2006 09:00 14.3 C 87 % 1019.7 hPa 0.0 l/m 0.0 km/h (0 Bft) N 0.33 h 240 W/m 12.1 C 14.3 C
05.05.2006 10:00 16.1 C 79 % 1019.5 hPa 0.0 l/m 1.2 km/h (1 Bft) SO 0.47 h 391 W/m 12.4 C 16.1 C
05.05.2006 11:00 18.0 C 68 % 1019.2 hPa 0.0 l/m 6.9 km/h (2 Bft) S-SO 0.53 h 470 W/m 11.9 C 18.0 C
05.05.2006 12:00 19.9 C 57 % 1019.0 hPa 0.0 l/m 8.5 km/h (2 Bft) S-SO 0.93 h 709 W/m 11.1 C 19.9 C
05.05.2006 13:00 19.8 C 58 % 1018.6 hPa 0.0 l/m 4.4 km/h (1 Bft) O-SO 0.20 h 250 W/m 11.4 C 19.8 C
05.05.2006 14:00 16.9 C 81 % 1018.6 hPa 1.0 l/m 0.6 km/h (0 Bft) O-SO 0.00 h 82 W/m 13.6 C 16.9 C
05.05.2006 15:00 16.3 C 89 % 1019.2 hPa 0.6 l/m 5.0 km/h (1 Bft) O-SO 0.00 h 141 W/m 14.4 C 16.3 C
05.05.2006 16:00 16.6 C 85 % 1019.4 hPa 0.0 l/m 0.5 km/h (0 Bft) SO 0.07 h 183 W/m 14.0 C 16.6 C
05.05.2006 17:00 15.9 C 87 % 1019.5 hPa 0.3 l/m 0.1 km/h (0 Bft) N 0.00 h 62 W/m 13.7 C 15.9 C
05.05.2006 18:00 15.0 C 92 % 1019.6 hPa 2.3 l/m 2.2 km/h (1 Bft) SO 0.00 h 29 W/m 13.7 C 15.0 C
05.05.2006 19:00 13.8 C 92 % 1020.1 hPa 0.0 l/m 2.7 km/h (1 Bft) SO 0.00 h 43 W/m 12.5 C 13.8 C
05.05.2006 20:00 13.5 C 94 % 1020.8 hPa 0.0 l/m 0.1 km/h (0 Bft) N 0.00 h 11 W/m 12.4 C 13.5 C
05.05.2006 21:00 13.1 C 95 % 1020.9 hPa 0.0 l/m 1.2 km/h (1 Bft) O-SO 0.00 h 0 W/m 12.3 C 13.1 C
05.05.2006 22:00 12.8 C 96 % 1020.9 hPa 0.0 l/m 0.0 km/h (0 Bft) N 0.00 h 0 W/m 12.2 C 12.8 C
05.05.2006 23:00 12.5 C 96 % 1021.0 hPa 0.0 l/m 0.4 km/h (0 Bft) O-SO 0.00 h 0 W/m 11.9 C 12.5 C
06.05.2006 00:00 12.1 C 97 % 1021.0 hPa 0.0 l/m 0.9 km/h (0 Bft) O-SO 0.00 h 0 W/m 11.7 C 12.1 C
06.05.2006 01:00 11.8 C 97 % 1021.1 hPa 0.0 l/m 1.0 km/h (0 Bft) O-SO 0.00 h 0 W/m 11.4 C 11.8 C
06.05.2006 02:00 11.7 C 97 % 1021.1 hPa 0.0 l/m 0.1 km/h (0 Bft) N 0.00 h 0 W/m 11.3 C 11.7 C
06.05.2006 03:00 11.6 C 97 % 1020.1 hPa 0.0 l/m 0.0 km/h (0 Bft) N 0.00 h 0 W/m 11.1 C 11.6 C
06.05.2006 04:00 11.8 C 98 % 1020.0 hPa 0.0 l/m 0.0 km/h (0 Bft) N 0.00 h 0 W/m 11.5 C 11.8 C
06.05.2006 05:00 11.9 C 97 % 1020.0 hPa 0.0 l/m 0.0 km/h (0 Bft) N 0.00 h 0 W/m 11.4 C 11.9 C
06.05.2006 06:00 12.0 C 97 % 1020.0 hPa 0.0 l/m 0.0 km/h (0 Bft) N 0.00 h 12 W/m 11.6 C 12.0 C
06.05.2006 07:00 12.4 C 96 % 1020.0 hPa 0.0 l/m 0.0 km/h (0 Bft) N 0.00 h 65 W/m 11.7 C 12.4 C
06.05.2006 08:00 13.0 C 92 % 1019.9 hPa 0.0 l/m 0.0 km/h (0 Bft) N 0.00 h 124 W/m 11.7 C 13.0 C
06.05.2006 09:00 13.8 C 86 % 1019.8 hPa 0.0 l/m 0.1 km/h (0 Bft) W-NW 0.00 h 153 W/m 11.6 C 13.8 C
06.05.2006 10:00 14.9 C 79 % 1019.6 hPa 0.0 l/m 0.0 km/h (0 Bft) N 0.25 h 303 W/m 11.3 C 14.9 C
06.05.2006 11:00 16.4 C 71 % 1019.4 hPa 0.0 l/m 0.1 km/h (0 Bft) N 0.52 h 376 W/m 11.2 C 16.4 C
06.05.2006 12:00 16.7 C 67 % 1019.0 hPa 0.0 l/m 0.1 km/h (0 Bft) NW 0.13 h 352 W/m 10.5 C 16.7 C
06.05.2006 13:00 19.0 C 59 % 1018.1 hPa 0.0 l/m 0.2 km/h (0 Bft) N 1.00 h 743 W/m 10.7 C 19.0 C
06.05.2006 14:00 19.5 C 54 % 1017.5 hPa 0.0 l/m 0.5 km/h (0 Bft) NW 0.90 h 573 W/m 10.0 C 19.5 C
06.05.2006 15:00 19.6 C 54 % 1016.5 hPa 0.0 l/m 1.4 km/h (1 Bft) W-NW 0.57 h 415 W/m 10.0 C 19.6 C
06.05.2006 16:00 19.1 C 55 % 1016.0 hPa 0.0 l/m 0.3 km/h (0 Bft) W-NW 0.00 h 232 W/m 10.0 C 19.1 C
06.05.2006 17:00 19.8 C 52 % 1015.9 hPa 0.0 l/m 0.0 km/h (0 Bft) N 0.67 h 295 W/m 9.8 C 19.8 C
06.05.2006 18:00 20.4 C 52 % 1015.7 hPa 0.0 l/m 0.1 km/h (0 Bft) N 1.00 h 258 W/m 10.3 C 20.4 C
06.05.2006 19:00 19.4 C 56 % 1015.5 hPa 0.0 l/m 1.0 km/h (0 Bft) O-SO 0.37 h 84 W/m 10.3 C 19.4 C
06.05.2006 20:00 17.0 C 65 % 1016.3 hPa 0.0 l/m 1.0 km/h (0 Bft) W-NW 0.00 h 4 W/m 10.3 C 17.0 C
06.05.2006 21:00 14.8 C 74 % 1017.6 hPa 0.0 l/m 0.4 km/h (0 Bft) W-NW 0.00 h 0 W/m 10.1 C 14.8 C
06.05.2006 22:00 13.7 C 76 % 1017.7 hPa 0.0 l/m 0.0 km/h (0 Bft) N 0.00 h 0 W/m 9.5 C 13.7 C
06.05.2006 23:00 12.6 C 83 % 1017.9 hPa 0.0 l/m 0.0 km/h (0 Bft) N 0.00 h 0 W/m 9.8 C 12.6 C
07.05.2006 00:00 11.4 C 90 % 1018.0 hPa 0.0 l/m 1.1 km/h (0 Bft) O-SO 0.00 h 0 W/m 9.8 C 11.4 C
07.05.2006 01:00 10.6 C 93 % 1018.1 hPa 0.0 l/m 0.7 km/h (0 Bft) O-SO 0.00 h 0 W/m 9.4 C 10.6 C
07.05.2006 02:00 10.0 C 96 % 1018.2 hPa 0.0 l/m 0.0 km/h (0 Bft) N 0.00 h 0 W/m 9.3 C 10.0 C
07.05.2006 03:00 9.2 C 98 % 1018.3 hPa 0.0 l/m 0.1 km/h (0 Bft) O-SO 0.00 h 0 W/m 8.9 C 9.2 C
07.05.2006 04:00 8.9 C 97 % 1018.4 hPa 0.0 l/m 0.5 km/h (0 Bft) O-SO 0.00 h 0 W/m 8.4 C 8.9 C
07.05.2006 05:00 8.4 C 97 % 1018.4 hPa 0.0 l/m 0.0 km/h (0 Bft) N 0.00 h 0 W/m 8.0 C 8.4 C
07.05.2006 06:00 8.7 C 97 % 1018.7 hPa 0.0 l/m 0.0 km/h (0 Bft) N 0.00 h 18 W/m 8.3 C 8.7 C
07.05.2006 07:00 9.0 C 93 % 1019.4 hPa 0.0 l/m 0.1 km/h (0 Bft) N 0.00 h 54 W/m 7.9 C 9.0 C
07.05.2006 08:00 9.8 C 87 % 1019.3 hPa 0.0 l/m 0.1 km/h (0 Bft) N 0.00 h 104 W/m 7.6 C 9.8 C
07.05.2006 09:00 11.6 C 80 % 1019.0 hPa 0.0 l/m 0.2 km/h (0 Bft) NW 0.40 h 286 W/m 8.3 C 11.6 C
07.05.2006 10:00 13.6 C 74 % 1018.8 hPa 0.0 l/m 0.2 km/h (0 Bft) W-NW 0.13 h 321 W/m 9.0 C 13.6 C
07.05.2006 11:00 15.5 C 67 % 1018.2 hPa 0.0 l/m 0.2 km/h (0 Bft) N 0.93 h 678 W/m 9.4 C 15.5 C
07.05.2006 12:00 17.9 C 59 % 1017.2 hPa 0.0 l/m 0.6 km/h (0 Bft) O-SO 0.97 h 759 W/m 9.6 C 17.9 C
07.05.2006 13:00 19.8 C 51 % 1016.7 hPa 0.0 l/m 2.0 km/h (1 Bft) O-SO 1.00 h 818 W/m 9.3 C 19.8 C
07.05.2006 14:00 20.8 C 47 % 1015.8 hPa 0.0 l/m 0.6 km/h (0 Bft) O-SO 0.97 h 735 W/m 9.1 C 20.8 C
07.05.2006 15:00 23.0 C 38 % 1015.5 hPa 0.0 l/m 4.8 km/h (1 Bft) O-SO 1.00 h 746 W/m 7.9 C 23.0 C
07.05.2006 16:00 22.6 C 36 % 1014.5 hPa 0.0 l/m 3.6 km/h (1 Bft) O-SO 0.80 h 483 W/m 6.8 C 22.6 C
07.05.2006 17:00 22.0 C 41 % 1014.6 hPa 0.0 l/m 0.3 km/h (0 Bft) S-SO 0.50 h 291 W/m 8.1 C 22.0 C
07.05.2006 18:00 20.0 C 51 % 1014.8 hPa 0.0 l/m 2.2 km/h (1 Bft) NW 0.00 h 131 W/m 9.4 C 20.0 C
07.05.2006 19:00 19.0 C 55 % 1014.9 hPa 0.0 l/m 0.1 km/h (0 Bft) N 0.00 h 67 W/m 9.7 C 19.0 C
07.05.2006 20:00 17.8 C 61 % 1015.1 hPa 0.0 l/m 0.1 km/h (0 Bft) O-SO 0.00 h 20 W/m 10.1 C 17.8 C
07.05.2006 21:00 15.9 C 71 % 1015.3 hPa 0.0 l/m 0.6 km/h (0 Bft) O-SO 0.00 h 0 W/m 10.7 C 15.9 C
07.05.2006 22:00 14.4 C 82 % 1015.5 hPa 0.0 l/m 0.4 km/h (0 Bft) O-SO 0.00 h 0 W/m 11.4 C 14.4 C
07.05.2006 23:00 12.8 C 90 % 1015.7 hPa 0.0 l/m 0.6 km/h (0 Bft) O-SO 0.00 h 0 W/m 11.2 C 12.8 C
Min-Datum _ 01.05.06 02.05.06 01.05.06 - 01.05.06 - - - 01.05.06 01.05.06
_ Min-Zeit 06:15 15:28 16:15 - 00:01 - - - 15:53 06:15
Minimum _ 0.8 C 20 % 1009.1 hPa - 0.0 km/h (0 Bft) - - - -2.9 C 0.8 C
Max-Datum _ 04.05.06 07.05.06 06.05.06 05.05.06 03.05.06 - 02.05.06 05.05.06 05.05.06 04.05.06
_ Max-Zeit 17:39 02:43 01:51 06:19 14:39 - 17:33 13:01 15:30 17:39
Maximum _ 27.5 C 100 % 1021.1 hPa 4.2 l/m 29.9 km/h
O-SO (5 Bft)
- 0.05 h 917 W/m 14.8 C 27.5 C
Durchschnitt _ 14.5 C 66 % 1016.2 hPa #8.4 l/m 1.1 km/h (1 Bft) O-SO #61:09 h 361 W/m 6.9 C 14.5 C
© Kaiko 2006